Nouadhibou International Airport

Current Flights

Info
Name: Nouadhibou International Airport
Identifier:  NDB/GQPP
Local Time:  20. May 03:28
City
Nouadhibou
  Mauritania

Flights per Day
6 flights
Distance: 588km (365mi)
Punctuality
71% (1 flights per day delayed)
Delay Average: 32 minutes
Current Weather
 19 C (Humidity: 82%)
  14kt (25km/h / 16mph) from 10°
  8km (4 mi.)
No significant changes expected

 METAR GQPP 200200Z 01014KT 8000 NSC 19/16 Q1014 NOSIG

Current Delays

Departures
N/A
Arrivals
N/A

Destinations

Top Destinations
Airport Flights
per week
Seats
per week
  Nouakchott (NKC) 7 - 1 0
  Las Palmas (LPA) 7 - 1 0
  Zouerate (OUZ) <1 - 0 0
  Casablanca (CMN) <1 - 0 0
  Barcelona (BCN) <1 28 0 4

Airlines & Planes

Top Airlines
Airline Flights
per Day
Seats
per Day
  Mauritania Airlines International 3 -
  Swiftair <1 -
  YanAir <1 4
Top Plane Types
Manufacturer Model Flights Seats
Embraer E175 2.2/day - 0
ATR 76-200 1.0/day - 0
Boeing B737-700 0.9/day - 0
Boeing B737-800 0.6/day - 0
Embraer ERJ145 0.2/day - 0
Boeing B737-300 0.0/day 4/day 4.666666666666667